sensor_id;sensor_type;location;lat;lon;timestamp;P1;durP1;ratioP1;P2;durP2;ratioP2
572;SDS011;271;51.114;13.780;2023-10-09T00:01:38;16.47;;;2.70;;
572;SDS011;271;51.114;13.780;2023-10-09T00:04:27;16.73;;;2.80;;
572;SDS011;271;51.114;13.780;2023-10-09T00:07:14;18.13;;;3.20;;
572;SDS011;271;51.114;13.780;2023-10-09T00:10:03;16.80;;;3.07;;
572;SDS011;271;51.114;13.780;2023-10-09T00:12:58;16.87;;;3.17;;
572;SDS011;271;51.114;13.780;2023-10-09T00:15:46;18.50;;;3.00;;
572;SDS011;271;51.114;13.780;2023-10-09T00:18:38;17.73;;;3.40;;
572;SDS011;271;51.114;13.780;2023-10-09T00:21:33;17.20;;;2.90;;
572;SDS011;271;51.114;13.780;2023-10-09T00:24:24;18.70;;;3.30;;
572;SDS011;271;51.114;13.780;2023-10-09T00:27:12;18.03;;;3.20;;
572;SDS011;271;51.114;13.780;2023-10-09T00:30:00;18.00;;;3.33;;
572;SDS011;271;51.114;13.780;2023-10-09T00:32:49;17.80;;;2.90;;
572;SDS011;271;51.114;13.780;2023-10-09T00:35:45;18.43;;;3.40;;
572;SDS011;271;51.114;13.780;2023-10-09T00:38:41;19.90;;;4.40;;
572;SDS011;271;51.114;13.780;2023-10-09T00:41:35;16.63;;;2.97;;
572;SDS011;271;51.114;13.780;2023-10-09T00:44:22;16.80;;;2.60;;
572;SDS011;271;51.114;13.780;2023-10-09T00:47:12;18.77;;;3.90;;
572;SDS011;271;51.114;13.780;2023-10-09T00:50:12;17.73;;;3.80;;
572;SDS011;271;51.114;13.780;2023-10-09T00:53:07;17.27;;;3.40;;
572;SDS011;271;51.114;13.780;2023-10-09T00:56:00;18.30;;;3.50;;
572;SDS011;271;51.114;13.780;2023-10-09T00:58:57;16.88;;;3.67;;
572;SDS011;271;51.114;13.780;2023-10-09T01:01:54;18.80;;;2.97;;
572;SDS011;271;51.114;13.780;2023-10-09T01:04:44;16.50;;;2.63;;
572;SDS011;271;51.114;13.780;2023-10-09T01:07:31;19.97;;;3.13;;
572;SDS011;271;51.114;13.780;2023-10-09T01:10:19;18.50;;;3.50;;
572;SDS011;271;51.114;13.780;2023-10-09T01:13:09;20.33;;;3.50;;
572;SDS011;271;51.114;13.780;2023-10-09T01:15:57;18.70;;;3.30;;
572;SDS011;271;51.114;13.780;2023-10-09T01:18:48;17.27;;;3.33;;
572;SDS011;271;51.114;13.780;2023-10-09T01:21:37;20.30;;;2.97;;
572;SDS011;271;51.114;13.780;2023-10-09T01:24:27;17.67;;;3.60;;
572;SDS011;271;51.114;13.780;2023-10-09T01:27:18;16.40;;;2.87;;
572;SDS011;271;51.114;13.780;2023-10-09T01:30:10;18.17;;;3.63;;
572;SDS011;271;51.114;13.780;2023-10-09T01:33:00;16.87;;;2.77;;
572;SDS011;271;51.114;13.780;2023-10-09T01:35:57;17.07;;;3.30;;
572;SDS011;271;51.114;13.780;2023-10-09T01:38:45;17.83;;;3.50;;
572;SDS011;271;51.114;13.780;2023-10-09T01:41:36;18.23;;;3.63;;
572;SDS011;271;51.114;13.780;2023-10-09T01:44:33;17.47;;;3.30;;
572;SDS011;271;51.114;13.780;2023-10-09T01:47:21;17.50;;;3.53;;
572;SDS011;271;51.114;13.780;2023-10-09T01:50:11;18.00;;;3.33;;
572;SDS011;271;51.114;13.780;2023-10-09T01:53:05;18.23;;;3.63;;
572;SDS011;271;51.114;13.780;2023-10-09T01:55:53;18.30;;;3.50;;
572;SDS011;271;51.114;13.780;2023-10-09T01:58:43;17.80;;;3.37;;
572;SDS011;271;51.114;13.780;2023-10-09T02:01:33;19.57;;;4.20;;
572;SDS011;271;51.114;13.780;2023-10-09T02:04:27;18.27;;;3.17;;
572;SDS011;271;51.114;13.780;2023-10-09T02:07:15;18.37;;;3.47;;
572;SDS011;271;51.114;13.780;2023-10-09T02:10:08;20.60;;;4.50;;
572;SDS011;271;51.114;13.780;2023-10-09T02:13:07;19.10;;;3.67;;
572;SDS011;271;51.114;13.780;2023-10-09T02:15:57;18.03;;;2.93;;
572;SDS011;271;51.114;13.780;2023-10-09T02:18:59;18.70;;;4.23;;
572;SDS011;271;51.114;13.780;2023-10-09T02:21:52;17.60;;;3.80;;
572;SDS011;271;51.114;13.780;2023-10-09T02:24:43;21.40;;;4.17;;
572;SDS011;271;51.114;13.780;2023-10-09T02:27:43;19.07;;;4.10;;
572;SDS011;271;51.114;13.780;2023-10-09T02:30:39;18.17;;;3.53;;
572;SDS011;271;51.114;13.780;2023-10-09T02:33:28;18.97;;;4.33;;
572;SDS011;271;51.114;13.780;2023-10-09T02:36:18;18.70;;;3.90;;
572;SDS011;271;51.114;13.780;2023-10-09T02:39:05;22.13;;;4.50;;
572;SDS011;271;51.114;13.780;2023-10-09T02:42:07;19.77;;;4.70;;
572;SDS011;271;51.114;13.780;2023-10-09T02:45:06;19.70;;;3.97;;
572;SDS011;271;51.114;13.780;2023-10-09T02:47:56;18.20;;;3.50;;
572;SDS011;271;51.114;13.780;2023-10-09T02:50:47;20.17;;;3.97;;
572;SDS011;271;51.114;13.780;2023-10-09T02:53:36;18.93;;;3.40;;
572;SDS011;271;51.114;13.780;2023-10-09T02:56:24;19.83;;;3.50;;
572;SDS011;271;51.114;13.780;2023-10-09T02:59:22;20.63;;;3.90;;
572;SDS011;271;51.114;13.780;2023-10-09T03:02:10;19.70;;;4.47;;
572;SDS011;271;51.114;13.780;2023-10-09T03:04:58;18.30;;;3.33;;
572;SDS011;271;51.114;13.780;2023-10-09T03:07:50;19.83;;;4.27;;
572;SDS011;271;51.114;13.780;2023-10-09T03:10:39;18.87;;;3.80;;
572;SDS011;271;51.114;13.780;2023-10-09T03:13:27;18.93;;;3.67;;
572;SDS011;271;51.114;13.780;2023-10-09T03:16:15;18.57;;;3.67;;
572;SDS011;271;51.114;13.780;2023-10-09T03:19:04;18.77;;;4.13;;
572;SDS011;271;51.114;13.780;2023-10-09T03:21:53;20.10;;;4.13;;
572;SDS011;271;51.114;13.780;2023-10-09T03:24:44;19.40;;;3.83;;
572;SDS011;271;51.114;13.780;2023-10-09T03:27:32;19.33;;;4.30;;
572;SDS011;271;51.114;13.780;2023-10-09T03:30:20;21.90;;;4.40;;
572;SDS011;271;51.114;13.780;2023-10-09T03:33:09;19.00;;;4.43;;
572;SDS011;271;51.114;13.780;2023-10-09T03:35:57;20.53;;;4.00;;
572;SDS011;271;51.114;13.780;2023-10-09T03:38:45;18.70;;;4.10;;
572;SDS011;271;51.114;13.780;2023-10-09T03:41:34;20.77;;;4.60;;
572;SDS011;271;51.114;13.780;2023-10-09T03:44:27;19.47;;;4.33;;
572;SDS011;271;51.114;13.780;2023-10-09T03:47:16;20.70;;;4.87;;
572;SDS011;271;51.114;13.780;2023-10-09T03:50:08;19.40;;;4.60;;
572;SDS011;271;51.114;13.780;2023-10-09T03:53:09;19.20;;;4.57;;
572;SDS011;271;51.114;13.780;2023-10-09T03:55:58;21.87;;;5.13;;
572;SDS011;271;51.114;13.780;2023-10-09T03:58:48;19.33;;;4.60;;
572;SDS011;271;51.114;13.780;2023-10-09T04:01:36;19.43;;;4.57;;
572;SDS011;271;51.114;13.780;2023-10-09T04:04:25;20.47;;;5.40;;
572;SDS011;271;51.114;13.780;2023-10-09T04:07:14;19.70;;;4.80;;
572;SDS011;271;51.114;13.780;2023-10-09T04:10:02;20.00;;;4.80;;
572;SDS011;271;51.114;13.780;2023-10-09T04:13:11;19.40;;;4.97;;
572;SDS011;271;51.114;13.780;2023-10-09T04:16:04;20.27;;;5.27;;
572;SDS011;271;51.114;13.780;2023-10-09T04:19:05;22.60;;;4.50;;
572;SDS011;271;51.114;13.780;2023-10-09T04:21:57;21.03;;;6.43;;
572;SDS011;271;51.114;13.780;2023-10-09T04:24:44;20.30;;;5.27;;
572;SDS011;271;51.114;13.780;2023-10-09T04:27:34;20.23;;;5.37;;
572;SDS011;271;51.114;13.780;2023-10-09T04:30:22;22.10;;;5.40;;
572;SDS011;271;51.114;13.780;2023-10-09T04:33:13;20.00;;;5.47;;
572;SDS011;271;51.114;13.780;2023-10-09T04:36:14;21.97;;;6.40;;
572;SDS011;271;51.114;13.780;2023-10-09T04:39:08;23.20;;;6.33;;
572;SDS011;271;51.114;13.780;2023-10-09T04:42:13;20.90;;;5.40;;
572;SDS011;271;51.114;13.780;2023-10-09T04:45:22;22.30;;;6.57;;
572;SDS011;271;51.114;13.780;2023-10-09T04:48:28;22.30;;;6.70;;
572;SDS011;271;51.114;13.780;2023-10-09T04:51:23;20.10;;;5.93;;
572;SDS011;271;51.114;13.780;2023-10-09T04:54:22;23.40;;;7.33;;
572;SDS011;271;51.114;13.780;2023-10-09T04:57:24;23.70;;;7.00;;
572;SDS011;271;51.114;13.780;2023-10-09T05:00:13;20.80;;;6.43;;
572;SDS011;271;51.114;13.780;2023-10-09T05:03:21;21.80;;;6.10;;
572;SDS011;271;51.114;13.780;2023-10-09T05:06:15;21.60;;;6.53;;
572;SDS011;271;51.114;13.780;2023-10-09T05:09:28;23.20;;;7.30;;
572;SDS011;271;51.114;13.780;2023-10-09T05:12:36;25.10;;;6.90;;
572;SDS011;271;51.114;13.780;2023-10-09T05:15:32;23.90;;;7.50;;
572;SDS011;271;51.114;13.780;2023-10-09T05:18:20;27.23;;;6.97;;
572;SDS011;271;51.114;13.780;2023-10-09T05:21:13;24.53;;;7.90;;
572;SDS011;271;51.114;13.780;2023-10-09T05:24:24;22.60;;;7.40;;
572;SDS011;271;51.114;13.780;2023-10-09T05:27:14;22.77;;;7.23;;
572;SDS011;271;51.114;13.780;2023-10-09T05:30:04;23.67;;;8.17;;
572;SDS011;271;51.114;13.780;2023-10-09T05:33:10;24.90;;;8.27;;
572;SDS011;271;51.114;13.780;2023-10-09T05:36:19;24.30;;;8.13;;
572;SDS011;271;51.114;13.780;2023-10-09T05:39:21;28.43;;;10.47;;
572;SDS011;271;51.114;13.780;2023-10-09T05:42:17;28.37;;;9.13;;
572;SDS011;271;51.114;13.780;2023-10-09T05:45:07;24.67;;;9.10;;
572;SDS011;271;51.114;13.780;2023-10-09T05:48:10;26.67;;;11.13;;
572;SDS011;271;51.114;13.780;2023-10-09T05:51:15;27.17;;;9.00;;
572;SDS011;271;51.114;13.780;2023-10-09T05:54:16;27.20;;;11.50;;
572;SDS011;271;51.114;13.780;2023-10-09T05:57:23;27.37;;;10.73;;
572;SDS011;271;51.114;13.780;2023-10-09T06:00:30;24.47;;;10.40;;
572;SDS011;271;51.114;13.780;2023-10-09T06:03:35;27.43;;;9.90;;
572;SDS011;271;51.114;13.780;2023-10-09T06:06:34;26.03;;;10.23;;
572;SDS011;271;51.114;13.780;2023-10-09T06:09:28;26.47;;;10.40;;
572;SDS011;271;51.114;13.780;2023-10-09T06:12:36;25.60;;;9.80;;
572;SDS011;271;51.114;13.780;2023-10-09T06:15:36;29.80;;;12.13;;
572;SDS011;271;51.114;13.780;2023-10-09T06:18:55;28.70;;;11.33;;
572;SDS011;271;51.114;13.780;2023-10-09T06:21:54;27.43;;;10.90;;
572;SDS011;271;51.114;13.780;2023-10-09T06:25:25;29.80;;;11.73;;
572;SDS011;271;51.114;13.780;2023-10-09T06:28:20;26.30;;;10.83;;
572;SDS011;271;51.114;13.780;2023-10-09T06:31:18;25.60;;;10.90;;
572;SDS011;271;51.114;13.780;2023-10-09T06:34:32;28.40;;;10.97;;
572;SDS011;271;51.114;13.780;2023-10-09T06:37:21;27.33;;;11.33;;
572;SDS011;271;51.114;13.780;2023-10-09T06:40:24;26.03;;;10.90;;
572;SDS011;271;51.114;13.780;2023-10-09T06:43:30;30.43;;;12.13;;
572;SDS011;271;51.114;13.780;2023-10-09T06:46:20;27.40;;;11.03;;
572;SDS011;271;51.114;13.780;2023-10-09T06:49:25;27.03;;;11.57;;
572;SDS011;271;51.114;13.780;2023-10-09T06:52:19;30.43;;;12.03;;
572;SDS011;271;51.114;13.780;2023-10-09T06:55:26;29.20;;;11.10;;
572;SDS011;271;51.114;13.780;2023-10-09T06:58:21;28.43;;;12.53;;
572;SDS011;271;51.114;13.780;2023-10-09T07:01:14;28.57;;;11.50;;
572;SDS011;271;51.114;13.780;2023-10-09T07:04:14;29.50;;;13.27;;
572;SDS011;271;51.114;13.780;2023-10-09T07:07:29;28.43;;;11.17;;
572;SDS011;271;51.114;13.780;2023-10-09T07:10:21;28.57;;;11.83;;
572;SDS011;271;51.114;13.780;2023-10-09T07:13:25;31.17;;;13.23;;
572;SDS011;271;51.114;13.780;2023-10-09T07:16:13;26.73;;;10.40;;
572;SDS011;271;51.114;13.780;2023-10-09T07:19:24;29.27;;;12.10;;
572;SDS011;271;51.114;13.780;2023-10-09T07:22:21;27.83;;;11.03;;
572;SDS011;271;51.114;13.780;2023-10-09T07:25:15;26.87;;;10.23;;
572;SDS011;271;51.114;13.780;2023-10-09T07:28:13;24.40;;;10.00;;
572;SDS011;271;51.114;13.780;2023-10-09T07:31:23;27.30;;;11.57;;
572;SDS011;271;51.114;13.780;2023-10-09T07:34:13;29.97;;;10.80;;
572;SDS011;271;51.114;13.780;2023-10-09T07:37:38;28.60;;;11.67;;
572;SDS011;271;51.114;13.780;2023-10-09T07:40:27;28.20;;;10.63;;
572;SDS011;271;51.114;13.780;2023-10-09T07:43:17;27.07;;;11.23;;
572;SDS011;271;51.114;13.780;2023-10-09T07:46:12;29.70;;;11.60;;
572;SDS011;271;51.114;13.780;2023-10-09T07:49:22;26.23;;;10.67;;
572;SDS011;271;51.114;13.780;2023-10-09T07:52:11;30.57;;;11.13;;
572;SDS011;271;51.114;13.780;2023-10-09T07:54:58;29.07;;;12.10;;
572;SDS011;271;51.114;13.780;2023-10-09T07:57:52;26.13;;;11.63;;
572;SDS011;271;51.114;13.780;2023-10-09T08:00:40;30.97;;;13.03;;
572;SDS011;271;51.114;13.780;2023-10-09T08:03:34;26.07;;;10.93;;
572;SDS011;271;51.114;13.780;2023-10-09T08:06:25;27.10;;;10.53;;
572;SDS011;271;51.114;13.780;2023-10-09T08:09:25;30.83;;;14.63;;
572;SDS011;271;51.114;13.780;2023-10-09T08:12:32;31.00;;;13.07;;
572;SDS011;271;51.114;13.780;2023-10-09T08:15:33;30.33;;;12.50;;
572;SDS011;271;51.114;13.780;2023-10-09T08:18:38;30.53;;;11.70;;
572;SDS011;271;51.114;13.780;2023-10-09T08:21:30;30.70;;;13.10;;
572;SDS011;271;51.114;13.780;2023-10-09T08:24:30;36.63;;;15.03;;
572;SDS011;271;51.114;13.780;2023-10-09T08:27:27;32.33;;;14.77;;
572;SDS011;271;51.114;13.780;2023-10-09T08:30:33;31.87;;;14.73;;
572;SDS011;271;51.114;13.780;2023-10-09T08:33:35;33.30;;;14.33;;
572;SDS011;271;51.114;13.780;2023-10-09T08:36:28;29.90;;;13.67;;
572;SDS011;271;51.114;13.780;2023-10-09T08:39:22;33.40;;;13.37;;
572;SDS011;271;51.114;13.780;2023-10-09T08:42:12;34.87;;;13.60;;
572;SDS011;271;51.114;13.780;2023-10-09T08:45:00;29.97;;;12.20;;
572;SDS011;271;51.114;13.780;2023-10-09T08:47:53;31.87;;;13.30;;
572;SDS011;271;51.114;13.780;2023-10-09T08:50:43;28.80;;;12.60;;
572;SDS011;271;51.114;13.780;2023-10-09T08:53:32;32.17;;;13.27;;
572;SDS011;271;51.114;13.780;2023-10-09T08:56:20;30.27;;;13.10;;
572;SDS011;271;51.114;13.780;2023-10-09T08:59:11;35.50;;;13.33;;
572;SDS011;271;51.114;13.780;2023-10-09T09:01:59;31.57;;;12.80;;
572;SDS011;271;51.114;13.780;2023-10-09T09:04:49;29.10;;;11.80;;
572;SDS011;271;51.114;13.780;2023-10-09T09:07:38;28.13;;;10.53;;
572;SDS011;271;51.114;13.780;2023-10-09T09:10:28;28.40;;;12.23;;
572;SDS011;271;51.114;13.780;2023-10-09T09:13:21;31.53;;;11.63;;
572;SDS011;271;51.114;13.780;2023-10-09T09:16:15;27.70;;;11.23;;
572;SDS011;271;51.114;13.780;2023-10-09T09:19:04;30.40;;;13.53;;
572;SDS011;271;51.114;13.780;2023-10-09T09:22:03;32.67;;;13.50;;
572;SDS011;271;51.114;13.780;2023-10-09T09:24:59;45.47;;;19.80;;
572;SDS011;271;51.114;13.780;2023-10-09T09:27:49;43.57;;;20.40;;
572;SDS011;271;51.114;13.780;2023-10-09T09:30:40;49.17;;;22.20;;
572;SDS011;271;51.114;13.780;2023-10-09T09:33:28;37.03;;;15.63;;
572;SDS011;271;51.114;13.780;2023-10-09T09:36:25;33.67;;;15.00;;
572;SDS011;271;51.114;13.780;2023-10-09T09:39:16;29.40;;;13.00;;
572;SDS011;271;51.114;13.780;2023-10-09T09:42:14;33.00;;;14.67;;
572;SDS011;271;51.114;13.780;2023-10-09T09:45:17;35.47;;;15.20;;
572;SDS011;271;51.114;13.780;2023-10-09T09:48:12;37.77;;;14.37;;
572;SDS011;271;51.114;13.780;2023-10-09T09:51:07;32.30;;;13.80;;
572;SDS011;271;51.114;13.780;2023-10-09T09:53:55;32.70;;;14.50;;
572;SDS011;271;51.114;13.780;2023-10-09T09:56:49;29.57;;;12.63;;
572;SDS011;271;51.114;13.780;2023-10-09T09:59:41;34.23;;;15.57;;
572;SDS011;271;51.114;13.780;2023-10-09T10:02:41;32.40;;;14.00;;
572;SDS011;271;51.114;13.780;2023-10-09T10:05:36;31.77;;;13.30;;
572;SDS011;271;51.114;13.780;2023-10-09T10:08:26;33.87;;;14.20;;
572;SDS011;271;51.114;13.780;2023-10-09T10:14:55;34.47;;;13.70;;
572;SDS011;271;51.114;13.780;2023-10-09T10:18:06;32.73;;;13.13;;
572;SDS011;271;51.114;13.780;2023-10-09T10:21:12;33.83;;;13.37;;
572;SDS011;271;51.114;13.780;2023-10-09T10:27:43;29.60;;;11.90;;
572;SDS011;271;51.114;13.780;2023-10-09T10:30:50;27.90;;;10.90;;
572;SDS011;271;51.114;13.780;2023-10-09T10:36:56;24.87;;;8.80;;
572;SDS011;271;51.114;13.780;2023-10-09T10:39:50;24.90;;;10.13;;
572;SDS011;271;51.114;13.780;2023-10-09T10:42:48;28.60;;;9.97;;
572;SDS011;271;51.114;13.780;2023-10-09T10:46:01;27.10;;;10.13;;
572;SDS011;271;51.114;13.780;2023-10-09T10:49:00;24.97;;;9.70;;
572;SDS011;271;51.114;13.780;2023-10-09T10:52:00;26.00;;;8.70;;
572;SDS011;271;51.114;13.780;2023-10-09T10:55:11;26.33;;;9.70;;
572;SDS011;271;51.114;13.780;2023-10-09T10:58:25;29.37;;;10.50;;
572;SDS011;271;51.114;13.780;2023-10-09T11:01:22;27.90;;;10.70;;
572;SDS011;271;51.114;13.780;2023-10-09T11:04:12;27.77;;;9.93;;
572;SDS011;271;51.114;13.780;2023-10-09T11:06:59;27.50;;;10.13;;
572;SDS011;271;51.114;13.780;2023-10-09T11:09:53;30.43;;;11.13;;
572;SDS011;271;51.114;13.780;2023-10-09T11:12:56;32.90;;;11.20;;
572;SDS011;271;51.114;13.780;2023-10-09T11:15:58;26.50;;;9.87;;
572;SDS011;271;51.114;13.780;2023-10-09T11:19:01;29.93;;;10.37;;
572;SDS011;271;51.114;13.780;2023-10-09T11:21:59;29.47;;;10.90;;
572;SDS011;271;51.114;13.780;2023-10-09T11:25:16;26.43;;;10.57;;
572;SDS011;271;51.114;13.780;2023-10-09T11:28:23;30.07;;;11.33;;
572;SDS011;271;51.114;13.780;2023-10-09T11:31:17;28.20;;;10.63;;
572;SDS011;271;51.114;13.780;2023-10-09T11:34:08;30.57;;;11.40;;
572;SDS011;271;51.114;13.780;2023-10-09T11:37:22;29.77;;;11.27;;
572;SDS011;271;51.114;13.780;2023-10-09T11:40:28;32.80;;;13.10;;
572;SDS011;271;51.114;13.780;2023-10-09T11:43:28;30.73;;;13.10;;
572;SDS011;271;51.114;13.780;2023-10-09T11:46:37;35.70;;;14.27;;
572;SDS011;271;51.114;13.780;2023-10-09T11:49:36;33.43;;;14.80;;
572;SDS011;271;51.114;13.780;2023-10-09T11:52:34;33.23;;;13.17;;
572;SDS011;271;51.114;13.780;2023-10-09T11:55:24;30.47;;;11.10;;
572;SDS011;271;51.114;13.780;2023-10-09T11:58:14;30.63;;;12.77;;
572;SDS011;271;51.114;13.780;2023-10-09T12:01:28;35.90;;;14.37;;
572;SDS011;271;51.114;13.780;2023-10-09T12:04:21;31.23;;;11.40;;
572;SDS011;271;51.114;13.780;2023-10-09T12:07:17;27.33;;;11.17;;
572;SDS011;271;51.114;13.780;2023-10-09T12:10:06;31.17;;;13.13;;
572;SDS011;271;51.114;13.780;2023-10-09T12:12:56;36.13;;;15.80;;
572;SDS011;271;51.114;13.780;2023-10-09T12:15:44;35.00;;;13.20;;
572;SDS011;271;51.114;13.780;2023-10-09T12:18:32;27.93;;;11.43;;
572;SDS011;271;51.114;13.780;2023-10-09T12:21:20;29.20;;;12.07;;
572;SDS011;271;51.114;13.780;2023-10-09T12:24:10;28.00;;;11.17;;
572;SDS011;271;51.114;13.780;2023-10-09T12:26:58;28.53;;;10.27;;
572;SDS011;271;51.114;13.780;2023-10-09T12:29:47;28.23;;;11.27;;
572;SDS011;271;51.114;13.780;2023-10-09T12:32:35;30.70;;;10.67;;
572;SDS011;271;51.114;13.780;2023-10-09T12:35:23;29.30;;;10.27;;
572;SDS011;271;51.114;13.780;2023-10-09T12:38:11;24.00;;;8.67;;
572;SDS011;271;51.114;13.780;2023-10-09T12:41:07;24.90;;;8.60;;
572;SDS011;271;51.114;13.780;2023-10-09T12:44:05;23.67;;;9.40;;
572;SDS011;271;51.114;13.780;2023-10-09T12:47:00;26.70;;;8.57;;
572;SDS011;271;51.114;13.780;2023-10-09T12:49:50;23.60;;;7.97;;
572;SDS011;271;51.114;13.780;2023-10-09T12:52:39;25.57;;;8.67;;
572;SDS011;271;51.114;13.780;2023-10-09T12:55:27;23.10;;;8.10;;
572;SDS011;271;51.114;13.780;2023-10-09T12:58:20;24.63;;;8.43;;
572;SDS011;271;51.114;13.780;2023-10-09T13:01:13;23.93;;;8.40;;
572;SDS011;271;51.114;13.780;2023-10-09T13:04:02;24.87;;;8.97;;
572;SDS011;271;51.114;13.780;2023-10-09T13:06:57;26.23;;;9.47;;
572;SDS011;271;51.114;13.780;2023-10-09T13:09:48;26.27;;;10.40;;
572;SDS011;271;51.114;13.780;2023-10-09T13:12:54;26.70;;;8.70;;
572;SDS011;271;51.114;13.780;2023-10-09T13:15:43;25.63;;;10.67;;
572;SDS011;271;51.114;13.780;2023-10-09T13:18:31;26.33;;;8.63;;
572;SDS011;271;51.114;13.780;2023-10-09T13:21:19;22.90;;;7.63;;
572;SDS011;271;51.114;13.780;2023-10-09T13:24:08;24.47;;;9.47;;
572;SDS011;271;51.114;13.780;2023-10-09T13:26:58;24.57;;;9.60;;
572;SDS011;271;51.114;13.780;2023-10-09T13:29:50;25.50;;;9.60;;
572;SDS011;271;51.114;13.780;2023-10-09T13:32:39;26.80;;;10.43;;
572;SDS011;271;51.114;13.780;2023-10-09T13:35:29;25.80;;;9.67;;
572;SDS011;271;51.114;13.780;2023-10-09T13:38:23;26.93;;;11.47;;
572;SDS011;271;51.114;13.780;2023-10-09T13:41:13;26.33;;;10.90;;
572;SDS011;271;51.114;13.780;2023-10-09T13:44:03;25.00;;;10.00;;
572;SDS011;271;51.114;13.780;2023-10-09T13:46:51;25.77;;;9.40;;
572;SDS011;271;51.114;13.780;2023-10-09T13:49:41;26.90;;;10.03;;
572;SDS011;271;51.114;13.780;2023-10-09T13:52:30;24.90;;;10.20;;
572;SDS011;271;51.114;13.780;2023-10-09T13:55:17;26.43;;;11.67;;
572;SDS011;271;51.114;13.780;2023-10-09T13:58:08;23.93;;;9.13;;
572;SDS011;271;51.114;13.780;2023-10-09T14:00:59;24.07;;;8.97;;
572;SDS011;271;51.114;13.780;2023-10-09T14:03:47;22.90;;;9.07;;
572;SDS011;271;51.114;13.780;2023-10-09T14:06:40;22.37;;;8.50;;
572;SDS011;271;51.114;13.780;2023-10-09T14:09:30;23.50;;;9.10;;
572;SDS011;271;51.114;13.780;2023-10-09T14:12:23;24.30;;;9.80;;
572;SDS011;271;51.114;13.780;2023-10-09T14:15:15;25.20;;;9.53;;
572;SDS011;271;51.114;13.780;2023-10-09T14:18:04;26.50;;;9.47;;
572;SDS011;271;51.114;13.780;2023-10-09T14:20:54;25.17;;;9.07;;
572;SDS011;271;51.114;13.780;2023-10-09T14:23:44;24.20;;;9.10;;
572;SDS011;271;51.114;13.780;2023-10-09T14:26:33;25.27;;;9.53;;
572;SDS011;271;51.114;13.780;2023-10-09T14:29:21;27.93;;;11.43;;
572;SDS011;271;51.114;13.780;2023-10-09T14:32:12;30.23;;;12.63;;
572;SDS011;271;51.114;13.780;2023-10-09T14:35:00;25.13;;;10.67;;
572;SDS011;271;51.114;13.780;2023-10-09T14:37:54;25.50;;;9.53;;
572;SDS011;271;51.114;13.780;2023-10-09T14:40:43;25.00;;;9.33;;
572;SDS011;271;51.114;13.780;2023-10-09T14:43:31;23.50;;;8.73;;
572;SDS011;271;51.114;13.780;2023-10-09T14:46:19;24.70;;;9.43;;
572;SDS011;271;51.114;13.780;2023-10-09T14:49:13;25.07;;;10.27;;
572;SDS011;271;51.114;13.780;2023-10-09T14:52:13;36.90;;;15.73;;
572;SDS011;271;51.114;13.780;2023-10-09T14:55:04;30.67;;;12.93;;
572;SDS011;271;51.114;13.780;2023-10-09T14:57:55;29.50;;;12.53;;
572;SDS011;271;51.114;13.780;2023-10-09T15:00:44;33.13;;;13.30;;
572;SDS011;271;51.114;13.780;2023-10-09T15:03:32;28.00;;;9.37;;
572;SDS011;271;51.114;13.780;2023-10-09T15:06:23;25.00;;;8.47;;
572;SDS011;271;51.114;13.780;2023-10-09T15:09:13;25.50;;;8.37;;
572;SDS011;271;51.114;13.780;2023-10-09T15:12:08;24.77;;;9.20;;
572;SDS011;271;51.114;13.780;2023-10-09T15:14:58;28.63;;;12.30;;
572;SDS011;271;51.114;13.780;2023-10-09T15:17:46;25.63;;;9.03;;
572;SDS011;271;51.114;13.780;2023-10-09T15:20:34;24.27;;;9.10;;
572;SDS011;271;51.114;13.780;2023-10-09T15:23:22;23.17;;;7.80;;
572;SDS011;271;51.114;13.780;2023-10-09T15:26:10;22.23;;;7.13;;
572;SDS011;271;51.114;13.780;2023-10-09T15:29:01;22.20;;;7.33;;
572;SDS011;271;51.114;13.780;2023-10-09T15:31:53;21.17;;;6.03;;
572;SDS011;271;51.114;13.780;2023-10-09T15:34:41;20.67;;;6.10;;
572;SDS011;271;51.114;13.780;2023-10-09T15:37:29;23.70;;;8.70;;
572;SDS011;271;51.114;13.780;2023-10-09T15:40:17;23.50;;;7.80;;
572;SDS011;271;51.114;13.780;2023-10-09T15:43:10;23.00;;;8.40;;
572;SDS011;271;51.114;13.780;2023-10-09T15:45:59;21.33;;;7.03;;
572;SDS011;271;51.114;13.780;2023-10-09T15:48:49;21.10;;;6.03;;
572;SDS011;271;51.114;13.780;2023-10-09T15:51:39;21.17;;;6.10;;
572;SDS011;271;51.114;13.780;2023-10-09T15:54:29;21.40;;;6.77;;
572;SDS011;271;51.114;13.780;2023-10-09T15:57:17;19.93;;;5.27;;
572;SDS011;271;51.114;13.780;2023-10-09T16:00:06;21.30;;;4.77;;
572;SDS011;271;51.114;13.780;2023-10-09T16:02:59;20.27;;;5.40;;
572;SDS011;271;51.114;13.780;2023-10-09T16:05:50;20.73;;;5.90;;
572;SDS011;271;51.114;13.780;2023-10-09T16:08:39;20.53;;;5.97;;
572;SDS011;271;51.114;13.780;2023-10-09T16:11:27;18.53;;;4.13;;
572;SDS011;271;51.114;13.780;2023-10-09T16:14:19;18.90;;;4.70;;
572;SDS011;271;51.114;13.780;2023-10-09T16:17:07;18.77;;;4.23;;
572;SDS011;271;51.114;13.780;2023-10-09T16:19:55;18.40;;;4.10;;
572;SDS011;271;51.114;13.780;2023-10-09T16:22:44;19.00;;;4.73;;
572;SDS011;271;51.114;13.780;2023-10-09T16:25:32;22.87;;;4.83;;
572;SDS011;271;51.114;13.780;2023-10-09T16:28:20;18.87;;;4.00;;
572;SDS011;271;51.114;13.780;2023-10-09T16:31:08;23.10;;;7.07;;
572;SDS011;271;51.114;13.780;2023-10-09T16:34:00;27.30;;;10.63;;
572;SDS011;271;51.114;13.780;2023-10-09T16:36:47;27.10;;;9.23;;
572;SDS011;271;51.114;13.780;2023-10-09T16:39:38;26.17;;;8.67;;
572;SDS011;271;51.114;13.780;2023-10-09T16:42:26;22.33;;;6.23;;
572;SDS011;271;51.114;13.780;2023-10-09T16:45:14;19.40;;;4.90;;
572;SDS011;271;51.114;13.780;2023-10-09T16:48:03;20.30;;;4.83;;
572;SDS011;271;51.114;13.780;2023-10-09T16:50:55;19.60;;;4.77;;
572;SDS011;271;51.114;13.780;2023-10-09T16:53:44;19.47;;;5.13;;
572;SDS011;271;51.114;13.780;2023-10-09T16:56:33;21.07;;;5.50;;
572;SDS011;271;51.114;13.780;2023-10-09T16:59:21;18.40;;;4.10;;
572;SDS011;271;51.114;13.780;2023-10-09T17:02:09;19.43;;;4.77;;
572;SDS011;271;51.114;13.780;2023-10-09T17:04:58;18.93;;;4.13;;
572;SDS011;271;51.114;13.780;2023-10-09T17:07:49;20.43;;;5.90;;
572;SDS011;271;51.114;13.780;2023-10-09T17:10:37;20.50;;;5.50;;
572;SDS011;271;51.114;13.780;2023-10-09T17:13:32;19.40;;;5.40;;
572;SDS011;271;51.114;13.780;2023-10-09T17:16:20;20.40;;;6.10;;
572;SDS011;271;51.114;13.780;2023-10-09T17:19:10;21.10;;;6.10;;
572;SDS011;271;51.114;13.780;2023-10-09T17:21:59;20.90;;;6.43;;
572;SDS011;271;51.114;13.780;2023-10-09T17:24:56;20.43;;;6.57;;
572;SDS011;271;51.114;13.780;2023-10-09T17:27:44;21.60;;;6.93;;
572;SDS011;271;51.114;13.780;2023-10-09T17:30:33;19.90;;;5.37;;
572;SDS011;271;51.114;13.780;2023-10-09T17:33:21;22.33;;;7.30;;
572;SDS011;271;51.114;13.780;2023-10-09T17:36:12;22.10;;;7.40;;
572;SDS011;271;51.114;13.780;2023-10-09T17:39:02;21.60;;;7.37;;
572;SDS011;271;51.114;13.780;2023-10-09T17:41:51;21.50;;;7.27;;
572;SDS011;271;51.114;13.780;2023-10-09T17:44:39;21.00;;;6.43;;
572;SDS011;271;51.114;13.780;2023-10-09T17:47:28;22.60;;;8.83;;
572;SDS011;271;51.114;13.780;2023-10-09T17:50:15;21.30;;;7.33;;
572;SDS011;271;51.114;13.780;2023-10-09T17:53:07;21.40;;;7.90;;
572;SDS011;271;51.114;13.780;2023-10-09T17:55:55;22.27;;;8.03;;
572;SDS011;271;51.114;13.780;2023-10-09T17:58:42;23.83;;;8.53;;
572;SDS011;271;51.114;13.780;2023-10-09T18:01:35;22.57;;;7.87;;
572;SDS011;271;51.114;13.780;2023-10-09T18:04:24;24.77;;;9.40;;